Terminal Aerodrome Forecast
Issued by NWS Jackson, KY

Home | Current Version | Previous Version | Graphics & Text | Print | Product List | Glossary On
Versions: 1 2 3 4 5 6 7 8 9 10 11 12 13 14 15 16 17 18 19 20
000
FTUS43 KJKL 211700
TAFLOZ
TAF
KLOZ 211739Z 2118/2218 26007KT P6SM VCTS SCT020 BKN040CB
     FM220700 VRB03KT 4SM BR VCSH SCT040
     FM221400 25007KT P6SM BKN040=

USA.gov is the U.S. government's official web portal to all federal, state and local government web resources and services.